Create Custom Reports and Graphics: Custom Report

North Region Latest Observations

Map

10 Minute Data

Winnemucca/Elko Latest Observations

Map

10 Minute Data

South Region Latest Observations

Map

10 Minute Data

Latest Observation

65 Stations

10 Minute Data
as of 5/3/26 1:17 PM PDT
Station Date Time Temp (°F) RH (%) Dew Pt (°F) Wind Spd (mph) Wind Dir (°) Wind Gust (mph) Wind Gst Dir (°) Latest Rain (In) Soil Moist (%) Soil Temp (°F) Daily Rain (In) Daily Min Temp (°F) Daily Max Temp (°F) Daily Max Wind (mph)
Hobart Mills 5/3/26 1300 61.2   0.2 41   1 37.3   0.3 5.8   2.2 NE | 37 13.2   3.4 NE | 54 0.00 - 32.0   0.0 0.00 37.5   2.5 61.5   0.4 13.2   0.9
Prosser Dam 5/3/26 1310 62.6   0.5 37   2 36.0   1.3 6.3   0.3 NNW | 330 11.2   3.6 NNW | 340 0.00 20.8   0.3 48.2   0.8 0.00 39.2   5.7 63.8   0.4 11.2   4.7
West Incline Village 5/3/26 1310 56.6   1.0 39   1 32.2   0.4 4.2   0.2 S | 182 12.2   1.1 SE | 145 0.00 30.6   0.1 44.4   0.2 0.00 44.8   0.9 57.6   0.4 16.0   3.2
Incline Village (Fairview Blvd) 5/3/26 1310 59.2   2.4 40   0 34.9   2.0 1.5   0.7 NNW | 338 8.8   1.5 NNW | 340 0.00 24.2   0.0 51.9   0.0 0.01 44.4   1.1 60.3   2.6 12.3   4.2
Incline Village (Diamond Peak) 5/3/26 1310 55.0   0.4 41   1 32.0   1.2 4.0   3.6 NE | 52 12.7   10.8 E | 88 0.00 8.4   0.1 44.7   0.2 0.00 47.8   1.5 55.3   0.6 17.4   10.4
Incline Village (Mill Creek) 5/3/26 1310 58.3   0.2 39   1 33.2   0.8 4.2   2.9 N | 357 11.3   7.2 NNW | 347 0.00 9.8   0.1 46.2   0.5 0.01 45.4   1.4 59.6   0.7 21.7   15.3
Incline Village (Lakeshore Blvd) 5/3/26 1310 61.6   1.8 37   1 35.4   2.4 3.0   2.7 NE | 45 14.0   12.7 ENE | 69 0.00 34.1   2.8 53.6   1.0 0.00 48.9   9.3 63.0   2.9 23.7   19.4
Glenbrook 5/3/26 1310 55.5   5.4 54   17 38.9   4.8 6.5   5.7 WSW | 239 11.9   9.3 WSW | 246 0.00 44.3   0.0 45.0   0.3 0.00 43.0   2.7 60.2   1.0 20.6   16.1
Zephyr Cove 5/3/26 1310 59.3   3.3 39   9 34.5   3.8 1.0   0.5 SSE | 167 3.2   1.5 SW | 235 0.00 - 34.3   0.0 0.00 43.8   0.7 60.1   2.7 6.1   1.4
Kingsbury Grade 5/3/26 1310 56.1   4.5 46   15 35.7   5.6 3.9   0.7 ESE | 102 10.6   4.2 E | 87 0.00 6.0   0.1 53.9   0.4 0.00 46.4   4.6 57.1   4.5 13.2   2.5
South Daggett Pass (Ridge) 5/3/26 1310 52.3   4.7 51   15 34.5   4.3 4.8   1.5 SE | 138 10.6   0.2 E | 81 0.00 6.5   0.1 48.6   0.3 0.00 44.6   0.4 53.1   4.2 14.5   2.6
Palomino Valley 5/3/26 1310 70.4   1.1 23   1 30.5   0.4 11.0   0.2 N | 354 21.6   1.4 N | 354 0.00 6.7   0.0 62.4   0.3 0.00 49.8   8.0 72.4   1.3 22.4   1.6
East Cold Springs 5/3/26 1310 65.3   0.2 30   2 33.5   1.6 8.0   1.4 NE | 45 16.8   6.0 NNE | 20 0.00 1.5   0.0 54.8   1.0 0.00 48.1   0.0 66.7   0.7 18.8   4.6
Peavine 5/3/26 1310 61.1   1.3 37   6 34.6   3.1 5.9   0.1 N | 9 13.2   0.5 NNE | 14 0.00 - 53.4   0.0 0.00 45.6   4.1 61.4   1.9 15.3   0.7
West Verdi Peak 5/3/26 1310 61.2   1.1 37   0 34.6   0.7 4.4   2.6 SE | 124 12.7   8.1 SE | 146 0.00 16.4   0.3 50.6   0.7 0.00 43.6   5.3 63.1   1.7 13.7   1.7
West Verdi 5/3/26 1310 65.5   1.0 33   5 35.9   3.1 8.2   0.0 E | 94 14.4   0.7 E | 98 0.00 7.7   0.1 59.4   1.4 0.00 47.2   0.5 66.3   0.9 14.4   5.0
South Verdi 5/3/26 1310 62.7   2.3 35   7 34.8   3.3 10.9   1.6 WSW | 248 15.5   4.7 WSW | 248 0.00 16.3   0.5 58.2   1.9 0.00 47.2   1.4 63.0   2.5 25.8   3.7
Northwest Reno 5/3/26 1310 65.5   1.3 32   4 34.6   2.4 11.3   0.6 NNE | 32 18.9   3.6 NE | 45 0.00 23.8   0.5 61.1   1.9 0.00 49.1   2.5 66.2   2.1 18.9   2.4
North Lawton 5/3/26 1310 66.0   0.4 31   4 34.7   3.5 6.1   3.1 NE | 35 11.8   4.0 ENE | 76 0.00 - 39.1   0.0 0.00 48.3   1.8 67.1   0.1 22.2   7.8
West Reno (Mogul) 5/3/26 1310 64.7   2.5 33   6 35.0   3.3 6.0   3.5 ENE | 71 11.0   1.7 NE | 53 0.00 38.8   0.2 61.0   0.2 0.00 48.1   0.7 65.0   2.8 15.3   4.2
Caughlin (Hunter Lake Trail) 9/16/25 0800 59.7   3.5 41   11 35.9   2.7 0.0   0.0 N | 0 0.0   0.0 ENE | 66 0.00 15.7   0.0 69.8   0.5 0.00 55.7   3.2 67.7   9.1 9.4   0.9
ArrowCreek 5/3/26 1310 64.9   1.4 33   3 35.1   1.6 6.3   1.8 NNW | 346 12.9   1.7 NNW | 344 0.00 - 32.0   0.0 0.00 49.0   0.1 65.6   1.6 14.2   3.6
Tracy 5/3/26 1310 72.3   0.3 20   1 29.1   1.7 11.5   4.3 ENE | 68 17.4   1.0 ENE | 64 0.00 8.0   0.1 62.5   0.6 0.00 51.1   3.1 72.7   0.8 18.5   0.1
Virginia Highlands 5/3/26 1310 63.3   0.4 27   3 28.5   2.8 6.7   2.0 ENE | 75 15.6   0.7 E | 89 0.00 7.2   0.0 57.0   0.1 0.00 48.4   3.8 64.6   0.2 16.0   5.3
Virginia City 5/3/26 1310 61.5   0.7 28   2 28.4   1.9 6.2   0.0 N | 357 13.7   2.5 N | 9 0.00 8.4   0.1 54.1   0.4 0.00 50.8   0.2 62.9   0.4 15.0   6.1
Six Mile Canyon 9/9/25 0630 60.2   9.6 37   6 33.7   4.8 4.1   2.5 W | 277 6.1   2.9 WNW | 286 0.00 12.5   0.0 75.5   0.7 0.00 57.9   7.6 64.4   1.9 7.0   3.9
Mt Rose Highway 4/30/26 0510 40.8   4.7 47   13 22.3   1.3 2.3   0.2 WSW | 243 4.8   2.1 WSW | 246 0.00 24.1   0.3 43.0   0.8 0.00 40.5   4.7 43.0   5.3 7.7   0.4
Pleasant Valley 5/3/26 1310 67.3   0.4 31   2 35.4   1.6 5.5   0.7 N | 355 11.6   0.7 NNW | 347 0.00 2.7   0.0 62.0   1.1 0.00 45.9   0.1 68.3   0.6 14.0   0.0
New Washoe City 5/3/26 1310 66.1   0.6 32   5 35.7   3.6 7.9   3.0 NNE | 21 13.0   3.1 ENE | 57 0.00 4.5   0.1 58.6   0.5 0.00 45.0   1.1 66.6   0.6 16.4   1.0
Franktown Creek 5/3/26 1310 66.1   0.6 36   2 38.7   1.0 6.0   6.0 NNE | 29 10.1   8.7 NE | 38 0.00 11.2   0.1 55.9   0.5 0.00 45.5   0.4 66.6   0.8 11.0   0.0
Musgrove Creek 5/3/26 1310 62.9   1.4 38   3 37.0   1.0 3.8   1.1 NE | 35 10.2   2.9 NE | 41 0.00 39.7   0.6 52.8   0.3 0.00 47.7   2.0 63.2   1.3 11.6   1.9
East Carson 11/23/24 0110 28.6   28.4 - - 4.7   11.0 SW | 220 14.7   10.1 SW | 219 0.02 - 50.9   0.1 0.02 -25.9   79.1 42.9   14.6 16.0   10.7
Kings Canyon 5/3/26 1310 65.0   0.9 34   3 36.1   1.2 7.8   6.0 NNW | 336 14.7   10.3 NNW | 338 0.00 15.2   0.3 57.4   1.0 0.00 45.1   0.7 65.4   1.0 14.9   6.6
Carson City (Voltaire Canyon) 5/3/26 1310 66.7   0.0 30   0 33.9   0.1 9.5   4.6 N | 358 20.1   8.1 NNE | 21 0.00 2.8   0.0 62.6   0.0 0.00 49.2   1.6 67.2   0.1 20.6   6.1
Jacks Valley 5/3/26 1310 66.5   0.8 29   1 33.7   0.1 5.9   3.6 NNE | 12 15.9   11.1 NNE | 16 0.00 9.6   0.2 63.2   1.9 0.00 46.1   0.8 67.0   0.8 17.6   8.3
Genoa 5/3/26 1310 66.8   1.9 36   6 38.9   2.7 1.3   1.0 E | 88 4.1   2.0 SE | 144 0.00 5.8   0.1 66.9   0.5 0.01 46.9   0.7 68.0   1.4 9.1   3.0
South Genoa (Walleys Hot Springs) 5/3/26 1310 65.6   3.1 41   11 41.5   5.0 10.0   7.9 SSE | 162 13.4   9.2 SSE | 150 0.00 13.6   0.1 63.2   0.4 0.01 46.2   3.3 67.0   2.0 13.4   5.8
SW Gardnerville (HWY 88) 5/3/26 1310 63.3   4.3 40   6 38.5   0.0 7.6   5.9 SSE | 166 12.9   8.8 ESE | 108 0.00 3.4   0.0 57.1   1.0 0.01 44.0   1.9 64.1   3.8 12.9   2.1
Sheridan 5/3/26 1310 64.8   1.8 37   2 38.2   0.0 3.6   1.0 ESE | 107 7.6   0.5 E | 95 0.00 2.3   0.1 59.1   0.8 0.00 46.2   0.4 65.4   1.8 8.4   0.2
Ruhenstroth 5/3/26 1310 63.0   4.6 35   3 35.2   1.6 2.7   0.3 S | 173 6.0   0.9 WSW | 249 0.00 12.9   0.1 58.2   0.8 0.00 45.5   0.5 63.2   4.7 15.8   7.6
Double Spring 5/3/26 1310 58.0   6.3 40   13 33.7   4.4 2.0   6.0 NW | 304 4.8   7.3 NE | 40 0.00 28.4   0.2 56.1   1.6 0.00 40.8   1.2 58.2   6.4 14.7   1.2
North Topaz Lake 5/3/26 1310 59.1   7.4 41   15 35.5   4.8 4.8   1.5 NW | 315 8.7   1.1 WNW | 296 0.00 9.2   0.0 63.2   2.9 0.00 48.9   2.7 61.1   5.8 19.8   9.8
Wild Oat Mountain 5/3/26 1310 57.8   6.5 38   10 32.6   1.7 6.2   1.8 NNW | 330 13.0   6.1 NNW | 332 0.00 16.6   0.1 58.7   0.8 0.00 48.4   3.5 58.8   5.9 24.0   15.4
Smith Valley 5/3/26 1310 66.8   4.3 27   4 32.0   0.3 5.6   3.1 WNW | 296 13.8   1.6 WNW | 282 0.00 5.9   0.1 61.1   0.8 0.00 47.4   1.9 67.9   3.9 14.7   3.0
Pine Grove Mountain 5/3/26 1310 47.8   10.2 49   21 29.5   4.2 12.4   6.0 SSE | 157 36.1   22.1 ESE | 120 0.00 14.5   0.0 50.1   1.6 0.00 42.2   3.8 53.4   5.3 36.1   12.4
Paradise Hill 5/3/26 1310 75.0   2.9 15   3 24.0   1.7 9.3   2.2 E | 95 14.8   0.6 ENE | 77 0.00 8.0   0.0 58.3   1.6 0.00 45.6   6.7 76.3   3.4 23.2   5.7
Winnemucca 5/3/26 1310 72.2   0.8 17   2 25.6   1.6 5.2   5.4 S | 182 10.3   8.3 SSE | 158 0.00 5.9   0.0 57.6   1.1 0.00 52.5   11.4 72.4   1.4 15.8   4.2
NE Elko 5/3/26 1310 68.2   0.4 16   2 20.9   2.3 10.1   2.0 SSE | 151 29.2   14.8 ESE | 117 0.00 12.4   0.0 58.2   2.5 0.00 40.4   11.8 70.2   0.7 29.2   12.9
North Elko 5/3/26 1310 67.4   0.5 16   1 19.4   2.1 1.7   0.2 E | 86 5.1   1.7 NE | 48 0.00 28.4   0.0 55.1   1.9 0.00 49.4   7.0 67.8   0.1 11.2   7.2
South Elko 5/3/26 1310 65.7   41.2 18   24 20.8   57.7 6.3   0.0 NE | 48 11.2   3.0 NE | 50 0.00 18.9   0.1 55.1   1.7 0.00 49.9   3.5 - 12.0   8.1
Lamoille 1/28/26 1720 33.2   0.5 65   17 22.8   6.3 5.8   1.5 SSE | 166 7.7   1.9 SE | 139 0.00 12.2   0.0 33.4   0.1 0.02 23.5   2.0 36.5   5.9 25.6   17.4
Reid Gardner Sub 5/3/26 1310 89.5   5.4 12   3 29.5   10.8 6.7   3.2 SE | 124 15.0   4.6 SE | 127 0.00 24.9   0.0 71.2   0.2 0.00 48.3   4.4 90.4   4.9 15.0   2.5
Corn Creek 5/3/26 1310 81.0   3.6 14   2 27.2   5.6 16.9   4.6 ENE | 76 27.1   7.7 ENE | 68 0.00 4.0   0.1 75.1   1.3 0.00 61.8   4.8 82.5   4.2 27.7   3.1
Lucky Strike 5/3/26 1310 68.8   2.9 16   3 20.2   6.6 10.4   2.4 ESE | 120 18.3   2.2 ESE | 110 0.00 4.3   0.1 68.0   1.6 0.00 56.6   2.2 70.0   2.8 29.6   8.4
Lower Angel Peak 5/3/26 1310 63.6   3.2 20   3 22.4   6.5 5.7   2.2 NNW | 347 20.7   3.6 NNW | 329 0.00 10.4   0.0 54.4   1.4 0.00 45.9   3.9 65.0   2.3 30.3   11.4
Angel Peak 5/3/26 1310 50.7   0.2 28   7 19.1   6.1 14.4   4.8 SE | 141 25.5   5.3 SE | 144 0.00 3.5   0.1 54.0   0.9 0.01 44.4   4.3 55.5   3.2 37.3   14.5
Upper Kyle Canyon 5/3/26 1310 54.2   2.7 28   7 21.4   5.0 6.4   1.9 E | 99 14.3   0.8 ESE | 103 0.00 13.8   0.0 53.0   2.3 0.00 42.1   4.5 56.6   0.8 28.4   9.8
Mt Charleston 5/3/26 1310 55.4   0.5 26   6 21.3   5.7 5.4   0.6 E | 85 18.6   2.4 ESE | 108 0.00 18.4   0.0 47.9   0.9 0.00 44.2   4.5 58.4   1.5 26.6   10.3
Mid Kyle Canyon 5/3/26 1310 62.5   1.1 21   3 21.7   5.1 8.3   1.7 SE | 127 13.7   0.1 S | 175 0.00 7.0   0.0 56.8   1.9 0.00 47.3   4.3 65.9   2.7 26.4   5.1
Blue Diamond 5/3/26 1310 80.5   5.3 13   1 25.4   6.2 8.8   3.6 ESE | 110 17.3   4.1 SE | 130 0.00 3.6   0.0 67.3   0.4 0.00 46.2   0.8 81.1   5.1 20.5   3.7
Artesian Sub 5/3/26 1310 89.6   5.1 11   1 27.4   6.6 3.3   1.3 ENE | 72 14.2   5.6 ENE | 77 0.00 13.4   0.1 73.4   0.2 0.00 62.9   0.1 90.4   4.3 14.2   0.2
North Henderson 5/3/26 1310 90.2   5.6 12   3 31.4   12.2 13.4   4.1 SSE | 157 25.5   9.7 S | 175 0.00 8.8   0.1 78.6   0.6 0.00 62.2   2.8 91.1   5.4 25.5   9.7
Sandy Valley 5/3/26 1310 83.8   4.2 16   3 32.3   9.4 14.3   7.9 S | 183 22.4   7.2 S | 188 0.00 4.5   0.1 75.9   0.1 0.00 54.4   10.8 85.1   4.6 31.4   3.6
Searchlight 5/3/26 1320 80.5   3.5 18   6 33.4   13.3 17.8   15.2 SSE | 153 29.2   18.9 SSE | 165 0.00 4.6   0.0 72.8   1.1 0.00 56.7   2.6 81.6   2.8 29.2   6.5
Laughlin 5/3/26 1310 94.4   2.4 16   6 40.9   15.0 19.1   10.8 SSE | 168 26.0   9.7 S | 188 0.00 4.1   0.0 83.3   1.5 0.00 68.7   3.5 95.4   2.2 28.6   7.7
Max     94.4 54 41.5 19.1 - 36.1 - 0.00 44.3 83.3 0.01 68.7 95.4 37.3
Avg     65.8 30 31.7 7.2 - 14.8 - 0.00 13.0 57.2 - - - -
Min     47.8 11 19.1 1.0 - 3.2 - 0.00 1.5 32.0 0.00 37.5 53.1 6.1

Latest Observation

65 Stations

Daily Data
as of 5/3/26 1:17 PM PDT
Station Date Daily Max Temp (°F) Daily Min Temp (°F) Daily Max RH (%) Daily Min RH (%) Wind Spd (mph) Wind Dir (°) Daily Max Wind (mph) Max Wind Dir (°) Time of Max Wind Daily Rain (In) Weekly Precip (In) Season Precip (In) Soil Moist (%) Fuel Temp (°F) Fuel Moisture (%) MinBV Day (V)
Hobart Mills 12/23/25 51.8   11.3 33.9   2.1 88   12 42   34 2.1   1.7 SW | 224 18.4   8.6 WSW | 240 2307 0.65 6.21 15.12 - 37.6   2.8 42   19 8.0   0.7
Prosser Dam 5/2/26 64.5   3.0 33.6   6.0 98   1 33   18 2.3   0.1 WSW | 247 17.3   2.7 SW | 222 1344 0.10 0.29 7.74 21.2   0.5 47.5   6.2 20   12 12.6   0.1
West Incline Village 5/2/26 57.2   4.0 41.9   0.7 95   32 27   13 2.4   0.6 ENE | 63 12.8   2.1 SSW | 202 1203 0.12 0.19 6.70 30.8   0.2 50.7   4.2 13   6 12.5   0.1
Incline Village (Fairview Blvd) 5/2/26 58.6   5.6 44.3   0.4 94   35 27   16 0.9   0.8 NNE | 20 9.9   2.5 NNW | 330 2024 0.11 0.11 6.29 24.2   0.1 52.3   4.9 9   3 12.6   0.0
Incline Village (Diamond Peak) 5/2/26 56.0   2.6 45.2   1.4 78   21 31   17 5.9   5.9 ENE | 72 13.8   4.6 ENE | 71 2000 0.00 0.00 0.41 8.5   0.1 -11.5   0.1 - 12.4   0.0
Incline Village (Mill Creek) 5/2/26 60.6   3.9 44.0   1.5 94   33 35   22 1.0   0.4 ENE | 58 15.8   0.6 NNE | 13 0024 0.05 0.05 5.96 9.9   0.0 - - 12.4   0.1
Incline Village (Lakeshore Blvd) 5/2/26 61.2   1.5 39.6   3.7 96   18 34   19 1.1   0.0 NE | 39 15.4   3.8 ENE | 57 2014 0.08 0.08 6.13 31.7   0.3 57.9   1.2 13   2 12.4   0.0
Glenbrook 5/2/26 61.1   3.3 40.3   3.0 85   8 34   14 1.8   0.1 ENE | 69 21.2   3.0 ENE | 73 2024 0.00 0.18 4.79 44.3   0.0 51.2   0.3 11   1 12.5   0.0
Zephyr Cove 5/2/26 62.8   0.7 43.1   13.7 75   19 29   6 0.3   0.3 NNW | 332 4.6   2.7 W | 266 1300 0.00 0.13 0.66 - 47.9   2.4 - 12.6   0.2
Kingsbury Grade 5/2/26 61.6   0.0 41.8   4.5 76   17 27   6 2.3   0.1 ENE | 76 16.8   1.6 SSE | 154 1752 0.00 0.03 4.87 6.0   0.2 54.2   0.3 6   1 12.5   0.0
South Daggett Pass (Ridge) 5/2/26 58.0   0.8 44.9   1.8 68   11 34   9 2.2   0.8 SSE | 147 18.9   2.2 SW | 226 1326 0.00 0.01 3.32 6.6   0.0 51.9   0.4 7   1 12.5   0.0
Palomino Valley 5/2/26 73.7   0.5 41.8   7.8 78   23 18   9 4.6   1.6 SW | 216 28.7   2.9 WNW | 300 1625 0.00 0.00 1.14 6.8   0.0 58.3   0.8 4   1 12.6   0.0
East Cold Springs 5/2/26 66.0   3.0 48.1   2.5 81   36 27   11 4.7   0.2 W | 261 18.6   7.4 N | 351 1957 0.07 0.07 1.48 1.5   0.0 54.6   2.7 15   8 12.6   0.0
Peavine 5/2/26 63.5   2.6 45.3   1.1 85   43 26   10 5.0   0.5 S | 182 22.5   4.6 SSW | 195 1755 0.02 0.02 1.49 - - - 12.6   0.0
West Verdi Peak 5/2/26 61.4   4.6 44.5   4.2 87   33 31   13 1.7   0.5 S | 174 16.0   1.1 WSW | 251 1452 0.03 0.05 5.64 16.8   0.6 51.2   6.0 10   4 12.6   0.0
West Verdi 5/2/26 67.2   3.1 46.7   7.5 88   21 27   11 3.7   0.6 W | 269 19.5   2.5 W | 262 1521 0.00 0.00 5.27 7.9   0.1 55.0   5.4 11   2 12.6   0.0
South Verdi 5/2/26 66.0   1.1 45.8   2.8 83   32 27   12 7.9   0.1 WSW | 248 24.5   4.8 WSW | 248 1323 0.04 0.04 4.28 16.8   0.6 56.4   4.1 12   5 12.6   0.0
Northwest Reno 5/2/26 68.3   2.6 51.6   5.2 75   33 22   8 5.8   1.1 NE | 48 28.4   3.1 ENE | 64 1748 0.04 0.04 1.04 24.3   0.0 - - 12.6   0.0
North Lawton 5/2/26 67.5   2.8 49.5   8.1 86   29 25   10 5.3   0.1 WSW | 254 18.9   2.2 ENE | 66 1752 0.03 0.03 1.73 - - - 12.5   0.0
West Reno (Mogul) 5/2/26 68.2   1.0 48.8   5.8 83   30 25   11 4.2   1.1 W | 266 28.1   4.8 SSW | 211 1332 0.02 0.02 3.92 38.9   0.2 58.8   3.6 4   3 12.5   0.0
Caughlin (Hunter Lake Trail) 9/15/25 78.6   1.3 52.5   3.7 58   7 23   2 4.2   2.5 S | 173 13.0   20.5 NNE | 31 1309 0.00 0.32 8.05 15.7   0.1 67.4   0.5 7   1 12.7   0.0
ArrowCreek 5/2/26 68.2   2.2 48.9   4.6 75   27 22   9 4.7   0.7 S | 186 28.9   12.6 ESE | 112 1423 0.01 0.01 4.57 - - - 12.4   0.0
Tracy 5/2/26 74.1   0.2 48.0   4.7 68   22 19   8 4.4   0.0 WSW | 248 23.2   3.1 SW | 234 1331 0.00 0.00 0.86 8.0   0.0 61.0   1.9 6   1 12.7   0.0
Virginia Highlands 5/2/26 65.2   0.6 48.0   1.2 86   51 21   9 4.0   0.3 SSW | 204 28.2   10.7 SE | 145 1600 0.03 0.03 1.74 7.2   0.0 55.5   4.7 9   4 12.6   0.0
Virginia City 5/2/26 64.1   1.4 51.0   3.5 65   32 20   4 5.9   2.9 SSW | 196 37.1   21.4 SSE | 156 1550 0.00 0.00 1.45 8.5   0.1 54.9   1.7 5   2 12.6   0.0
Six Mile Canyon 9/8/25 98.8   16.5 50.2   7.6 44   3 11   1 7.2   0.3 WSW | 252 27.0   4.6 SSE | 159 1325 0.00 0.00 0.89 12.6   0.1 69.7   3.0 4   0 12.4   0.2
Mt Rose Highway 4/29/26 56.6   7.9 35.6   4.1 63   16 31   6 2.2   0.0 NW | 305 10.8   4.2 NE | 35 1152 0.00 0.08 4.93 24.3   0.3 47.6   8.0 3   0 12.4   0.0
Pleasant Valley 5/2/26 68.9   3.0 46.0   4.7 80   17 23   9 3.7   0.8 SSW | 202 25.5   10.9 SE | 136 1712 0.05 0.05 2.08 2.8   0.0 59.5   6.4 10   4 12.6   0.0
New Washoe City 5/2/26 67.5   2.6 46.1   5.3 82   35 23   10 5.3   1.0 ENE | 57 28.2   9.2 ENE | 75 1706 0.01 0.01 1.32 4.6   0.0 57.8   4.4 7   2 12.6   0.0
Franktown Creek 5/2/26 67.4   2.5 45.2   6.6 94   27 29   15 1.8   0.4 W | 271 23.0   12.8 SSW | 210 1405 0.02 0.02 5.35 11.2   0.0 56.0   0.9 10   2 12.6   0.0
Musgrove Creek 5/2/26 64.5   2.3 47.1   0.4 88   33 23   8 1.4   0.1 SW | 220 12.7   1.6 W | 265 1521 0.05 0.09 7.08 39.1   0.1 55.7   3.4 15   6 12.6   0.0
East Carson 11/22/24 63.8   0.3 41.7   4.6 85   21 21   9 14.9   6.0 SW | 224 46.6   12.7 S | 171 1835 0.05 0.05 4.48 2.5   0.0 53.9   0.3 9   0 12.6   0.0
Kings Canyon 5/2/26 67.9   1.0 45.8   5.5 80   28 28   13 3.4   0.3 S | 186 22.5   7.6 ENE | 64 1649 0.02 0.02 3.88 15.5   0.4 58.4   4.5 6   2 12.6   0.0
Carson City (Voltaire Canyon) 5/2/26 70.0   0.2 50.9   3.5 70   22 25   11 7.5   3.7 SSW | 201 28.1   12.3 ESE | 118 1642 0.00 0.00 0.09 2.8   0.0 - - 12.6   0.0
Jacks Valley 5/2/26 69.0   0.5 47.0   3.4 79   31 25   9 3.5   0.2 WSW | 248 25.5   6.3 NNW | 335 2013 0.01 0.02 1.99 9.9   0.3 58.5   2.6 7   1 12.6   0.0
Genoa 5/2/26 71.9   0.7 47.6   5.1 82   26 24   10 0.4   0.3 NE | 50 10.7   1.0 NE | 36 1640 0.01 0.01 4.75 5.8   0.2 60.2   1.0 9   1 12.3   0.0
South Genoa (Walleys Hot Springs) 5/2/26 72.1   0.2 42.9   5.9 84   4 24   9 3.6   1.2 SE | 144 21.6   5.7 S | 176 1444 0.00 0.00 2.95 13.6   0.0 60.5   2.5 7   1 12.5   0.0
SW Gardnerville (HWY 88) 5/2/26 70.6   0.0 42.1   8.3 81   3 26   9 4.6   1.3 SW | 228 25.3   12.4 S | 177 1620 0.01 0.01 0.57 3.4   0.0 55.9   2.7 11   3 12.4   0.0
Sheridan 5/2/26 72.1   1.2 45.8   6.2 73   7 23   6 3.9   0.6 SW | 230 23.6   9.7 SW | 223 1500 0.00 0.00 3.06 2.5   0.1 58.9   3.9 7   1 12.6   0.0
Ruhenstroth 5/2/26 70.7   1.2 45.0   5.5 70   16 23   10 3.3   0.1 S | 190 22.4   5.6 S | 171 1624 0.00 0.00 1.42 13.0   0.2 57.9   1.8 8   1 12.6   0.0
Double Spring 5/2/26 65.6   1.7 39.6   9.0 86   22 25   15 3.7   0.0 NE | 48 21.0   2.7 SE | 128 1704 0.12 0.12 1.66 28.8   0.1 54.3   0.9 8   2 12.6   0.0
North Topaz Lake 5/2/26 67.9   1.0 51.6   3.7 65   24 24   14 4.4   0.5 N | 352 22.1   4.7 NE | 50 1654 0.05 0.05 1.14 9.1   0.2 58.7   4.1 7   3 12.6   0.0
Wild Oat Mountain 5/2/26 65.6   2.6 49.7   3.5 68   27 25   12 4.0   0.8 N | 3 24.2   5.6 NE | 38 1700 0.00 0.00 1.25 16.7   0.1 57.6   2.6 6   1 12.6   0.0
Smith Valley 5/2/26 72.5   0.4 45.6   2.8 61   12 21   9 4.2   0.3 WNW | 288 20.2   5.8 E | 96 1555 0.00 0.00 0.86 6.0   0.0 60.0   3.9 6   0 12.6   0.0
Pine Grove Mountain 5/2/26 58.7   1.6 44.7   3.2 63   25 20   2 7.8   2.0 ESE | 104 24.5   4.3 E | 97 1818 0.02 0.10 0.36 14.5   0.0 52.2   0.6 6   2 12.6   0.0
Paradise Hill 5/2/26 74.6   2.8 38.9   0.3 53   4 16   2 4.4   1.0 SW | 214 19.9   0.6 N | 350 1851 0.00 0.00 2.33 8.1   0.0 62.7   1.9 6   0 12.6   0.0
Winnemucca 5/2/26 75.7   4.1 41.1   2.6 43   7 15   3 4.7   2.4 ESE | 105 20.0   1.6 SSW | 194 1256 0.00 0.09 2.90 5.9   0.0 64.4   2.0 1   1 12.6   0.0
NE Elko 5/2/26 71.9   3.8 28.6   5.3 51   7 10   4 2.8   0.3 ESE | 118 16.8   0.1 SE | 146 1519 0.00 0.01 2.29 12.5   0.0 54.2   1.2 3   1 12.6   0.0
North Elko 5/2/26 69.7   4.6 42.5   0.8 34   0 10   2 4.6   2.2 NNE | 24 18.4   0.4 S | 184 1238 0.00 0.00 2.04 28.4   0.1 59.6   1.7 3   1 12.6   0.0
South Elko 5/2/26 - 46.3   2.4 90   10 14   3 5.1   0.2 SE | 146 20.1   0.5 SE | 125 1100 0.00 0.00 2.67 19.0   0.0 56.5   2.1 3   1 12.6   0.0
Lamoille 1/27/26 42.4   2.7 21.5   6.4 60   0 25   6 2.6   0.5 SE | 125 8.2   4.1 SE | 139 0137 0.00 0.00 0.67 12.3   0.2 26.9   1.3 11   0 8.5   2.8
Reid Gardner Sub 5/2/26 88.5   2.3 52.7   10.1 36   9 8   1 2.5   2.2 WNW | 300 13.7   6.6 NNE | 14 1530 0.00 0.00 0.56 25.4   0.1 76.1   4.0 1   0 12.6   0.0
Corn Creek 5/2/26 81.5   2.0 57.0   5.7 21   5 9   4 6.9   1.6 SE | 129 25.8   1.7 E | 88 1513 0.00 0.00 0.63 4.1   0.0 73.0   0.9 1   0 12.5   0.0
Lucky Strike 5/2/26 68.7   0.8 54.4   0.8 19   10 10   4 8.5   0.8 SSE | 160 25.0   7.2 ENE | 71 1330 0.00 0.00 1.21 4.4   0.0 65.1   1.5 2   1 12.6   0.0
Lower Angel Peak 5/2/26 64.1   2.4 42.0   0.1 33   10 14   4 4.9   1.3 SE | 137 23.2   5.8 NNW | 333 1327 0.00 0.01 1.93 10.5   0.1 57.2   2.2 3   1 12.6   0.0
Angel Peak 5/2/26 53.6   0.2 40.1   0.6 32   12 18   4 9.7   6.5 SE | 126 25.5   0.6 SE | 138 1428 0.00 0.01 84.70 3.5   0.0 50.0   0.2 5   1 12.5   0.0
Upper Kyle Canyon 5/2/26 58.9   3.0 37.6   0.5 36   12 15   4 4.7   0.9 NNE | 13 18.6   2.0 ESE | 106 1118 0.00 0.15 5.08 13.8   0.0 54.6   5.6 7   1 12.6   0.0
Mt Charleston 5/2/26 58.9   2.1 39.7   0.1 38   11 16   3 2.8   0.5 WSW | 254 16.3   3.0 SE | 131 0937 0.00 0.17 5.28 18.5   0.1 56.4   6.2 29   0 12.6   0.0
Mid Kyle Canyon 5/2/26 64.0   0.2 43.0   0.4 32   12 15   2 9.0   0.8 NNW | 343 21.4   0.5 WNW | 301 0526 0.00 0.02 2.08 7.1   0.0 62.9   5.2 6   1 12.7   0.0
Blue Diamond 5/2/26 79.0   0.4 45.4   0.0 33   12 8   3 3.8   0.7 W | 276 16.8   2.2 ESE | 122 1244 0.00 0.00 0.85 3.5   0.0 - 3   1 12.7   0.0
Artesian Sub 5/2/26 88.0   1.0 63.0   1.3 25   3 6   3 1.2   1.5 NE | 40 13.9   1.7 NNE | 25 0942 0.00 0.00 0.35 13.4   0.1 - 0   0 12.6   0.0
North Henderson 5/2/26 87.8   1.8 65.1   4.1 27   4 7   2 2.8   2.2 WNW | 302 16.6   2.1 ENE | 66 1348 0.00 0.00 0.52 8.8   0.1 80.5   0.2 4   0 12.7   0.0
Sandy Valley 5/2/26 83.9   0.1 65.2   4.5 18   8 9   3 8.9   1.1 ESE | 102 35.0   3.5 E | 85 0142 0.00 0.00 0.62 4.6   0.0 79.1   1.4 3   1 12.8   0.0
Searchlight 5/2/26 81.1   2.7 59.3   4.2 20   7 10   6 6.5   5.2 NE | 39 22.7   8.7 ESE | 122 1302 0.00 0.00 0.51 4.7   0.0 74.7   2.6 0   0 12.6   0.0
Laughlin 5/2/26 94.7   1.7 72.2   3.6 23   1 9   3 7.1   7.0 N | 3 20.9   13.3 NNE | 24 0944 0.00 0.00 0.29 4.2   0.0 85.4   0.3 3   0 12.8   0.0
Max   94.7 72.2 98 35 9.7 - 37.1 - - 0.12 - 84.70 44.3 85.4 29 12.8
Avg   - - - - 4.2 - - - - - - - 13.1 57.7 7 -
Min   53.6 28.6 18 6 0.3 - 4.6 - - 0.00 - 0.09 1.5 -11.5 0 12.3

Fosberg 6Hr Max

Map

Hourly Data

Fosberg 6Hr Max

Map

Hourly Data